Time;durP1;ratioP1;P1;durP2;ratioP2;P2;SDS_P1;SDS_P2;PMS_P1;PMS_P2;Temp;Humidity;BMP_temperature;BMP_pressure;BME280_temperature;BME280_humidity;BME280_pressure;Samples;Min_cycle;Max_cycle;Signal;HPM_P1;HPM_P2
2023/06/02 00:01:49;;;;;;;4.83;1.77;;;;;;;-145.18;100.00;46709.22;5058843;28;20036;-59
2023/06/02 00:04:17;;;;;;;9.30;1.77;;;;;;;-145.18;100.00;46720.94;5040178;28;20078;-59
2023/06/02 00:06:45;;;;;;;6.17;1.87;;;;;;;-145.18;100.00;46715.09;5051407;28;20032;-59
2023/06/02 00:09:11;;;;;;;8.07;2.03;;;;;;;-145.18;100.00;46709.22;5051882;28;20502;-59
2023/06/02 00:11:38;;;;;;;5.90;1.70;;;;;;;-145.18;100.00;46703.38;5051848;28;20060;-59
2023/06/02 00:14:07;;;;;;;10.13;2.30;;;;;;;-145.18;100.00;46713.13;5052168;28;20044;-58
2023/06/02 00:16:41;;;;;;;4.27;1.73;;;;;;;-145.18;100.00;46722.91;5051525;28;20029;-59
2023/06/02 00:19:07;;;;;;;10.87;2.37;;;;;;;-145.18;100.00;46715.09;5051475;28;20520;-59
2023/06/02 00:21:36;;;;;;;5.30;2.40;;;;;;;-145.18;100.00;46707.28;5039579;28;20116;-59
2023/06/02 00:24:02;;;;;;;7.17;2.00;;;;;;;-145.18;100.00;46685.78;5058629;28;20043;-59
2023/06/02 00:26:27;;;;;;;11.03;2.83;;;;;;;-145.18;100.00;46711.19;5045112;28;20027;-59
2023/06/02 00:28:55;;;;;;;7.73;2.10;;;;;;;-145.18;100.00;46693.59;5043590;28;20029;-59
2023/06/02 00:31:21;;;;;;;5.43;1.77;;;;;;;-145.18;100.00;46709.22;5045178;28;20040;-59
2023/06/02 00:33:46;;;;;;;5.00;2.00;;;;;;;-145.18;100.00;46703.38;5060193;28;20028;-59
2023/06/02 00:36:12;;;;;;;10.23;1.97;;;;;;;-145.18;100.00;46677.97;5054732;28;20560;-58
2023/06/02 00:38:39;;;;;;;12.63;2.60;;;;;;;-145.18;100.00;46668.22;5059762;28;20072;-59
2023/06/02 00:41:04;;;;;;;8.73;2.47;;;;;;;-145.18;100.00;46677.97;5027761;28;20406;-58
2023/06/02 00:43:30;;;;;;;6.17;2.10;;;;;;;-145.18;100.00;46676.03;5040007;28;20025;-58
2023/06/02 00:45:55;;;;;;;7.60;2.33;;;;;;;-145.18;100.00;46664.31;5040817;28;20090;-59
2023/06/02 00:48:21;;;;;;;5.77;2.20;;;;;;;-145.18;100.00;46676.03;5042546;28;20030;-58
2023/06/02 00:50:46;;;;;;;8.33;1.90;;;;;;;-145.18;100.00;46656.50;5051890;28;20055;-59
2023/06/02 00:53:12;;;;;;;5.33;1.80;;;;;;;-145.18;100.00;46662.34;5043789;28;20429;-59
2023/06/02 00:55:37;;;;;;;6.40;2.40;;;;;;;-145.18;100.00;46668.22;5033353;28;20391;-58
2023/06/02 00:58:07;;;;;;;9.40;2.00;;;;;;;-145.18;100.00;46662.34;5051855;28;20036;-59
2023/06/02 01:00:36;;;;;;;8.23;2.00;;;;;;;-145.18;100.00;46660.41;5046135;28;20029;-59
2023/06/02 01:03:02;;;;;;;9.17;1.97;;;;;;;-145.18;100.00;46638.91;5053407;28;20089;-59
2023/06/02 01:05:29;;;;;;;7.20;2.03;;;;;;;-145.18;100.00;46633.06;5053436;28;20573;-59
2023/06/02 01:08:00;;;;;;;6.00;2.20;;;;;;;-145.18;100.00;46621.31;5051537;28;20124;-59
2023/06/02 01:10:27;;;;;;;9.00;2.27;;;;;;;-145.18;100.00;46609.59;5050629;28;20068;-59
2023/06/02 01:12:53;;;;;;;14.53;2.67;;;;;;;-145.18;100.00;46601.78;5042698;28;20040;-59
2023/06/02 01:15:18;;;;;;;10.97;2.73;;;;;;;-145.18;100.00;46597.88;5059967;28;20029;-59
2023/06/02 01:17:45;;;;;;;9.90;2.30;;;;;;;-145.18;100.00;46593.97;5026876;28;20036;-59
2023/06/02 01:20:12;;;;;;;5.87;2.20;;;;;;;-145.18;100.00;46588.13;5051573;28;20021;-59
2023/06/02 01:23:02;;;;;;;7.97;2.30;;;;;;;-145.18;100.00;46592.03;5051798;28;20112;-59
2023/06/02 01:25:28;;;;;;;10.90;2.73;;;;;;;-145.18;100.00;46593.97;5038526;28;20030;-58
2023/06/02 01:27:57;;;;;;;12.60;2.97;;;;;;;-145.18;100.00;46592.03;5051186;28;20261;-58
2023/06/02 01:30:24;;;;;;;16.00;2.57;;;;;;;-145.18;100.00;46590.06;5051751;28;20085;-58
2023/06/02 01:33:06;;;;;;;11.50;2.90;;;;;;;-145.18;100.00;46636.94;5053668;28;20056;-59
2023/06/02 01:35:36;;;;;;;10.50;2.40;;;;;;;-145.18;100.00;46597.88;5049057;28;20469;-59
2023/06/02 01:38:02;;;;;;;10.87;2.73;;;;;;;-145.18;100.00;46599.84;5060643;28;20865;-59
2023/06/02 01:40:29;;;;;;;6.70;2.17;;;;;;;-145.18;100.00;46611.56;5047697;28;20044;-60
2023/06/02 01:42:56;;;;;;;15.47;2.40;;;;;;;-145.18;100.00;46623.28;5054937;28;20033;-59
2023/06/02 01:45:21;;;;;;;10.30;2.90;;;;;;;-145.18;100.00;46623.28;5054727;28;20475;-59
2023/06/02 01:47:47;;;;;;;9.50;1.97;;;;;;;-145.18;100.00;46629.13;5042579;28;20031;-59
2023/06/02 01:50:12;;;;;;;10.80;1.90;;;;;;;-145.18;100.00;46636.94;5055017;28;20490;-59
2023/06/02 01:52:37;;;;;;;5.57;2.10;;;;;;;-145.18;100.00;46648.69;5042767;28;20482;-59
2023/06/02 01:55:03;;;;;;;10.17;2.03;;;;;;;-145.18;100.00;46638.91;5050340;28;20060;-59
2023/06/02 01:57:30;;;;;;;7.27;2.47;;;;;;;-145.18;100.00;46636.94;5032256;28;20068;-59
2023/06/02 01:59:55;;;;;;;9.90;2.33;;;;;;;-145.18;100.00;46652.59;5047990;28;20033;-59
2023/06/02 02:02:20;;;;;;;11.47;1.60;;;;;;;-145.18;100.00;46640.88;5054491;28;20052;-59
2023/06/02 02:04:46;;;;;;;10.30;2.43;;;;;;;-145.18;100.00;46629.13;5054638;28;20037;-59
2023/06/02 02:07:11;;;;;;;6.37;2.47;;;;;;;-145.18;100.00;46635.00;5054346;28;20461;-58
2023/06/02 02:09:38;;;;;;;16.80;2.77;;;;;;;-145.18;100.00;46611.56;5054427;28;20103;-58
2023/06/02 02:12:04;;;;;;;11.23;2.80;;;;;;;-145.18;100.00;46603.75;5052727;28;20044;-59
2023/06/02 02:14:30;;;;;;;12.93;3.33;;;;;;;-145.18;100.00;46595.94;5054485;28;20036;-59
2023/06/02 02:16:55;;;;;;;10.47;3.97;;;;;;;-145.18;100.00;46601.78;5050098;28;20034;-59
2023/06/02 02:19:23;;;;;;;9.37;2.60;;;;;;;-145.18;100.00;46597.88;5047916;28;20623;-59
2023/06/02 02:21:48;;;;;;;11.77;4.20;;;;;;;-145.18;100.00;46640.88;5054243;28;20043;-59
2023/06/02 02:24:16;;;;;;;7.00;2.67;;;;;;;-145.18;100.00;46636.94;5054170;28;20112;-59
2023/06/02 02:26:43;;;;;;;13.73;3.00;;;;;;;-145.18;100.00;46633.06;5043672;28;20020;-59
2023/06/02 02:29:08;;;;;;;7.30;2.57;;;;;;;-145.18;100.00;46590.06;5048762;28;20272;-59
2023/06/02 02:31:34;;;;;;;12.77;3.03;;;;;;;-145.18;100.00;46629.13;5063200;28;20262;-58
2023/06/02 02:34:00;;;;;;;10.80;3.40;;;;;;;-145.18;100.00;46627.19;5054119;28;20036;-59
2023/06/02 02:36:26;;;;;;;10.83;3.00;;;;;;;-145.18;100.00;46588.13;5057166;28;20045;-59
2023/06/02 02:38:51;;;;;;;10.17;2.70;;;;;;;-145.18;100.00;46629.13;5036842;28;20310;-59
2023/06/02 02:41:17;;;;;;;7.80;2.10;;;;;;;-145.18;100.00;46631.09;5070039;28;20033;-59
2023/06/02 02:43:42;;;;;;;11.03;3.07;;;;;;;-145.18;100.00;46631.09;5046979;28;20083;-59
2023/06/02 02:46:08;;;;;;;7.87;2.00;;;;;;;-145.18;100.00;46584.22;5038962;28;20032;-58
2023/06/02 02:48:33;;;;;;;12.60;3.07;;;;;;;-145.18;100.00;46629.13;5065090;28;20524;-59
2023/06/02 02:50:59;;;;;;;7.07;2.33;;;;;;;-145.18;100.00;46627.19;5053979;28;20043;-59
2023/06/02 02:53:29;;;;;;;7.10;3.20;;;;;;;-145.18;100.00;46621.31;5053920;28;20033;-58
2023/06/02 02:55:56;;;;;;;12.57;2.83;;;;;;;-145.18;100.00;46627.19;5056826;28;20063;-59
2023/06/02 02:58:22;;;;;;;10.87;2.57;;;;;;;-145.18;100.00;46623.28;5055043;28;20755;-59
2023/06/02 03:00:47;;;;;;;13.13;2.37;;;;;;;-145.18;100.00;46621.31;5047205;28;20278;-59
2023/06/02 03:03:13;;;;;;;10.73;2.80;;;;;;;-145.18;100.00;46623.28;5030179;28;20033;-59
2023/06/02 03:05:41;;;;;;;8.80;2.33;;;;;;;-145.18;100.00;46621.31;5061232;28;20055;-58
2023/06/02 03:08:09;;;;;;;5.63;2.73;;;;;;;-145.18;100.00;46617.41;5039119;28;20040;-59
2023/06/02 03:10:35;;;;;;;11.30;2.93;;;;;;;-145.18;100.00;46617.41;5050973;28;20368;-59
2023/06/02 03:13:01;;;;;;;12.33;2.53;;;;;;;-145.18;100.00;46625.22;5059480;28;20075;-59
2023/06/02 03:15:27;;;;;;;8.13;2.30;;;;;;;-145.18;100.00;46623.28;5052652;28;20364;-58
2023/06/02 03:17:55;;;;;;;10.53;2.40;;;;;;;-145.18;100.00;46619.38;5041649;28;20029;-59
2023/06/02 03:20:21;;;;;;;7.30;2.27;;;;;;;-145.18;100.00;46619.38;5052763;28;20112;-58
2023/06/02 03:22:47;;;;;;;6.80;2.20;;;;;;;-145.18;100.00;46580.31;5053789;28;20057;-59
2023/06/02 03:25:13;;;;;;;7.13;2.00;;;;;;;-145.18;100.00;46621.31;5052971;28;20075;-59
2023/06/02 03:27:38;;;;;;;9.00;1.93;;;;;;;-145.18;100.00;46625.22;5052717;28;20024;-59
2023/06/02 03:30:04;;;;;;;7.07;2.07;;;;;;;-145.18;100.00;46627.19;5045947;28;20128;-59
2023/06/02 03:32:30;;;;;;;10.20;2.40;;;;;;;-145.18;100.00;46625.22;5042086;28;20052;-59
2023/06/02 03:34:55;;;;;;;7.73;2.23;;;;;;;-145.18;100.00;46621.31;5052193;28;20731;-59
2023/06/02 03:37:21;;;;;;;4.57;2.17;;;;;;;-145.18;100.00;46623.28;5052416;28;20045;-59
2023/06/02 03:39:46;;;;;;;9.00;2.50;;;;;;;-145.18;100.00;46578.34;5034595;28;20453;-59
2023/06/02 03:42:11;;;;;;;4.77;2.40;;;;;;;-145.18;100.00;46617.41;5016704;28;20029;-59
2023/06/02 03:44:37;;;;;;;8.57;2.33;;;;;;;-145.18;100.00;46623.28;5047362;28;20040;-59
2023/06/02 03:47:02;;;;;;;7.20;2.17;;;;;;;-145.18;100.00;46619.38;5059711;28;20050;-59
2023/06/02 03:49:29;;;;;;;8.77;2.30;;;;;;;-145.18;100.00;46621.31;5040401;28;20041;-59
2023/06/02 03:51:55;;;;;;;5.50;1.87;;;;;;;-145.18;100.00;46619.38;5065659;28;20347;-59
2023/06/02 03:54:20;;;;;;;11.07;2.40;;;;;;;-145.18;100.00;46625.22;5051482;28;20281;-59
2023/06/02 03:56:45;;;;;;;6.43;2.30;;;;;;;-145.18;100.00;46621.31;5039385;28;20040;-58
2023/06/02 03:59:11;;;;;;;8.20;2.03;;;;;;;-145.18;100.00;46621.31;5052178;28;20035;-59
2023/06/02 04:01:39;;;;;;;7.87;2.27;;;;;;;-145.18;100.00;46617.41;5039398;28;20040;-58
2023/06/02 04:04:04;;;;;;;10.27;2.30;;;;;;;-145.18;100.00;46621.31;5052797;28;20063;-58
2023/06/02 04:06:30;;;;;;;7.37;2.63;;;;;;;-145.18;100.00;46619.38;5052192;28;20923;-59
2023/06/02 04:08:55;;;;;;;8.97;2.50;;;;;;;-145.18;100.00;46621.31;5047614;28;20036;-59
2023/06/02 04:11:22;;;;;;;7.70;1.77;;;;;;;-145.18;100.00;46615.47;5052322;28;20429;-59
2023/06/02 04:13:48;;;;;;;7.33;2.27;;;;;;;-145.18;100.00;46621.31;5062879;28;20128;-59
2023/06/02 04:16:14;;;;;;;7.27;3.07;;;;;;;-145.18;100.00;46574.44;5047039;28;20343;-59
2023/06/02 04:18:40;;;;;;;5.27;2.10;;;;;;;-145.18;100.00;46617.41;5058287;28;20265;-59
2023/06/02 04:21:05;;;;;;;7.57;2.53;;;;;;;-145.18;100.00;46619.38;5071483;28;20028;-59
2023/06/02 04:23:31;;;;;;;8.47;2.03;;;;;;;-145.18;100.00;46574.44;5040180;28;20547;-59
2023/06/02 04:25:56;;;;;;;6.40;2.10;;;;;;;-145.18;100.00;46617.41;5045472;28;20478;-59
2023/06/02 04:28:22;;;;;;;11.50;2.13;;;;;;;-145.18;100.00;46621.31;5040643;28;20033;-59
2023/06/02 04:30:49;;;;;;;8.93;1.67;;;;;;;-145.18;100.00;46629.13;5055997;28;20167;-59
2023/06/02 04:33:14;;;;;;;12.47;2.63;;;;;;;-145.18;100.00;46588.13;5037228;28;20045;-58
2023/06/02 04:35:40;;;;;;;7.07;1.80;;;;;;;-145.18;100.00;46597.88;5035111;28;20044;-59
2023/06/02 04:38:07;;;;;;;7.23;2.00;;;;;;;-145.18;100.00;46599.84;5032683;28;20058;-60
2023/06/02 04:40:33;;;;;;;7.50;1.70;;;;;;;-145.18;100.00;46599.84;5045237;28;20029;-59
2023/06/02 04:42:59;;;;;;;6.83;1.43;;;;;;;-145.18;100.00;46615.47;5059135;28;20036;-59
2023/06/02 04:45:24;;;;;;;11.73;1.80;;;;;;;-145.18;100.00;46623.28;5056323;28;20159;-59
2023/06/02 04:47:49;;;;;;;6.03;1.47;;;;;;;-145.18;100.00;46629.13;5064135;28;20035;-59
2023/06/02 04:50:15;;;;;;;7.83;1.83;;;;;;;-145.18;100.00;46617.41;5033626;28;20067;-59
2023/06/02 04:52:44;;;;;;;5.47;1.67;;;;;;;-145.18;100.00;46629.13;5033778;28;20029;-60
2023/06/02 04:55:11;;;;;;;8.97;1.90;;;;;;;-145.18;100.00;46636.94;5046613;28;20394;-59
2023/06/02 04:57:36;;;;;;;9.27;1.50;;;;;;;-145.18;100.00;46633.06;5049026;28;20491;-59
2023/06/02 05:00:06;;;;;;;11.10;1.67;;;;;;;-145.18;100.00;46652.59;5050715;28;20077;-59
2023/06/02 05:02:32;;;;;;;10.37;1.93;;;;;;;-145.18;100.00;46654.53;5050246;28;20117;-59
2023/06/02 05:04:58;;;;;;;8.63;1.70;;;;;;;-145.18;100.00;46642.81;5058589;28;20143;-59
2023/06/02 05:07:23;;;;;;;13.80;1.90;;;;;;;-145.18;100.00;46642.81;5039378;28;20498;-59
2023/06/02 05:09:49;;;;;;;10.70;1.50;;;;;;;-145.18;100.00;46644.78;5062860;28;20032;-59
2023/06/02 05:12:17;;;;;;;6.37;1.70;;;;;;;-145.18;100.00;46636.94;5036314;28;20036;-59
2023/06/02 05:14:43;;;;;;;10.37;1.20;;;;;;;-145.18;100.00;46654.53;5037554;28;20518;-59
2023/06/02 05:17:08;;;;;;;7.27;1.40;;;;;;;-145.18;100.00;46650.63;5035777;28;20029;-59
2023/06/02 05:19:34;;;;;;;10.73;1.97;;;;;;;-145.18;100.00;46660.41;5039007;28;20025;-59
2023/06/02 05:22:02;;;;;;;6.87;2.97;;;;;;;-145.18;100.00;46677.97;5055252;28;20529;-59
2023/06/02 05:24:31;;;;;;;3.77;1.07;;;;;;;-145.18;100.00;46679.94;5057193;28;20036;-59
2023/06/02 05:26:56;;;;;;;5.70;1.53;;;;;;;-145.18;100.00;46672.13;5038621;28;20034;-59
2023/06/02 05:29:21;;;;;;;6.87;2.17;;;;;;;-145.18;100.00;46674.06;5055347;28;20085;-59
2023/06/02 05:31:47;;;;;;;8.90;1.63;;;;;;;-145.18;100.00;46672.13;5054838;28;20090;-59
2023/06/02 05:34:12;;;;;;;10.10;1.97;;;;;;;-145.18;100.00;46681.88;5055332;28;20036;-59
2023/06/02 05:36:37;;;;;;;4.60;1.57;;;;;;;-145.18;100.00;46646.72;5054818;28;20076;-59
2023/06/02 05:39:03;;;;;;;9.53;1.97;;;;;;;-145.18;100.00;46662.34;5033509;28;20405;-58
2023/06/02 05:41:28;;;;;;;15.63;1.80;;;;;;;-145.18;100.00;46664.31;5049283;28;20032;-58
2023/06/02 05:43:55;;;;;;;10.63;2.23;;;;;;;-145.18;100.00;46666.25;5061765;28;20037;-59
2023/06/02 05:46:21;;;;;;;7.17;1.73;;;;;;;-145.18;100.00;46662.34;5050732;28;20024;-59
2023/06/02 05:48:47;;;;;;;5.17;1.90;;;;;;;-145.18;100.00;46668.22;5048657;28;20025;-58
2023/06/02 05:51:12;;;;;;;13.37;2.90;;;;;;;-145.18;100.00;46699.47;5027767;28;20076;-59
2023/06/02 05:53:38;;;;;;;7.80;1.70;;;;;;;-145.18;100.00;46683.84;5037152;28;20427;-59
2023/06/02 05:56:03;;;;;;;7.07;1.93;;;;;;;-145.18;100.00;46691.66;5038477;28;20033;-59
2023/06/02 05:58:29;;;;;;;11.93;1.93;;;;;;;-145.18;100.00;46687.75;5041434;28;20040;-59
2023/06/02 06:00:55;;;;;;;11.23;2.27;;;;;;;-145.18;100.00;46677.97;5045908;28;20039;-59
2023/06/02 06:03:20;;;;;;;6.87;1.80;;;;;;;-145.18;100.00;46687.75;5056193;28;20022;-59
2023/06/02 06:05:46;;;;;;;9.30;1.57;;;;;;;-145.18;100.00;46697.50;5042330;28;20080;-59
2023/06/02 06:08:11;;;;;;;7.90;2.17;;;;;;;-145.18;100.00;46679.94;5040913;28;20340;-58
2023/06/02 06:10:37;;;;;;;7.50;1.30;;;;;;;-145.18;100.00;46711.19;5033766;28;20121;-58
2023/06/02 06:13:02;;;;;;;9.07;2.13;;;;;;;-145.18;100.00;46691.66;5040129;28;20029;-59
2023/06/02 06:15:28;;;;;;;13.57;1.83;;;;;;;-145.18;100.00;46699.47;5049046;28;20036;-60
2023/06/02 06:17:53;;;;;;;17.03;1.77;;;;;;;-145.18;100.00;46703.38;5041980;28;20033;-59
2023/06/02 06:20:20;;;;;;;7.63;2.03;;;;;;;-145.18;100.00;46709.22;5045827;28;20040;-59
2023/06/02 06:22:45;;;;;;;7.67;1.40;;;;;;;-145.18;100.00;46701.41;5064509;28;20033;-58
2023/06/02 06:25:11;;;;;;;7.13;2.10;;;;;;;-145.18;100.00;46707.28;5065981;28;20036;-59
2023/06/02 06:27:37;;;;;;;6.33;1.47;;;;;;;-145.18;100.00;46719.00;5042917;28;20079;-58
2023/06/02 06:30:04;;;;;;;13.80;1.53;;;;;;;-145.18;100.00;46711.19;5048684;28;20083;-59
2023/06/02 06:32:30;;;;;;;9.20;1.63;;;;;;;-145.18;100.00;46705.31;5052719;28;20032;-59
2023/06/02 06:34:55;;;;;;;6.10;1.60;;;;;;;-145.18;100.00;46701.41;5055811;28;20054;-59
2023/06/02 06:37:21;;;;;;;6.43;1.90;;;;;;;-145.18;100.00;46703.38;5030026;28;20568;-58
2023/06/02 06:39:46;;;;;;;6.67;1.67;;;;;;;-145.18;100.00;46711.19;5039266;28;20040;-59
2023/06/02 06:42:11;;;;;;;11.97;2.27;;;;;;;-145.18;100.00;46720.94;5044454;28;20391;-58
2023/06/02 06:44:37;;;;;;;6.37;1.47;;;;;;;-145.18;100.00;46736.56;5030803;28;20033;-59
2023/06/02 06:47:03;;;;;;;6.03;1.60;;;;;;;-145.18;100.00;46738.53;5046239;28;20106;-59
2023/06/02 06:49:28;;;;;;;6.93;1.70;;;;;;;-145.18;100.00;46765.88;5048473;28;20087;-59
2023/06/02 06:51:54;;;;;;;9.27;2.47;;;;;;;-145.18;100.00;46746.34;5022808;28;20033;-58
2023/06/02 06:54:19;;;;;;;13.03;1.83;;;;;;;-145.18;100.00;46812.75;5053487;28;20053;-59
2023/06/02 06:56:45;;;;;;;9.07;2.50;;;;;;;-145.18;100.00;46832.28;5056009;28;20511;-59
2023/06/02 06:59:11;;;;;;;11.57;1.60;;;;;;;-145.18;100.00;46916.28;5035633;28;20108;-58
2023/06/02 07:01:37;;;;;;;9.37;2.07;;;;;;;-145.18;100.00;46855.72;5051916;28;20124;-59
2023/06/02 07:04:03;;;;;;;10.07;1.73;;;;;;;-145.18;100.00;47146.81;5040353;28;20039;-59
2023/06/02 07:06:28;;;;;;;10.47;1.13;;;;;;;-145.18;100.00;47422.28;5055741;28;20021;-59
2023/06/02 07:08:54;;;;;;;11.40;1.70;;;;;;;-145.18;100.00;47418.38;5035324;28;20021;-59
2023/06/02 07:11:19;;;;;;;5.43;1.70;;;;;;;-145.18;100.00;47406.63;5053143;28;20029;-59
2023/06/02 07:13:45;;;;;;;5.87;1.53;;;;;;;-145.18;100.00;47430.09;5053354;28;20090;-58
2023/06/02 07:16:10;;;;;;;6.63;1.40;;;;;;;-145.18;100.00;47443.75;5053251;28;20112;-59
2023/06/02 07:18:36;;;;;;;9.63;1.77;;;;;;;-145.18;100.00;47424.22;5036561;28;20033;-59
2023/06/02 07:21:01;;;;;;;8.50;1.87;;;;;;;-145.18;100.00;47420.31;5031850;28;20131;-59
2023/06/02 07:23:27;;;;;;;5.73;1.80;;;;;;;-145.18;100.00;47424.22;5059777;28;20067;-58
2023/06/02 07:25:52;;;;;;;4.30;1.50;;;;;;;-145.18;100.00;47394.91;5040018;28;20062;-59
2023/06/02 07:28:18;;;;;;;15.23;1.70;;;;;;;-145.18;100.00;47391.00;5052993;28;20108;-59
2023/06/02 07:30:48;;;;;;;7.80;1.80;;;;;;;-145.18;100.00;47381.25;5058373;28;20021;-59
2023/06/02 07:33:15;;;;;;;9.73;1.50;;;;;;;-145.18;100.00;47355.84;5064250;28;20029;-58
2023/06/02 07:35:40;;;;;;;8.50;1.60;;;;;;;-145.18;100.00;47324.59;5058919;28;20029;-59
2023/06/02 07:38:06;;;;;;;9.33;1.70;;;;;;;-145.18;100.00;47355.84;5041023;28;20059;-59
2023/06/02 07:40:31;;;;;;;4.83;1.73;;;;;;;-145.18;100.00;47328.50;5052519;28;20068;-59
2023/06/02 07:42:57;;;;;;;5.97;1.83;;;;;;;-145.18;100.00;47318.72;5052557;28;20037;-59
2023/06/02 07:45:22;;;;;;;11.90;1.80;;;;;;;-145.18;100.00;47303.09;5052875;28;20459;-59
2023/06/02 07:47:48;;;;;;;7.30;1.40;;;;;;;-145.18;100.00;47320.69;5046153;28;20152;-59
2023/06/02 07:50:13;;;;;;;4.77;1.37;;;;;;;-145.18;100.00;47312.88;5037281;28;20033;-58
2023/06/02 07:52:39;;;;;;;10.13;1.70;;;;;;;-145.18;100.00;47301.16;5039512;28;20032;-59
2023/06/02 07:55:05;;;;;;;8.83;1.50;;;;;;;-145.18;100.00;47307.00;5038788;28;20041;-59
2023/06/02 07:57:30;;;;;;;9.17;1.87;;;;;;;-145.18;100.00;47299.19;5020876;28;20040;-59
2023/06/02 07:59:55;;;;;;;9.70;2.00;;;;;;;-145.18;100.00;47314.81;5034182;28;20510;-58
2023/06/02 08:02:21;;;;;;;9.03;2.50;;;;;;;-145.18;100.00;47310.91;5020647;28;20037;-58
2023/06/02 08:04:47;;;;;;;3.93;1.90;;;;;;;-145.18;100.00;47297.22;5037769;28;20060;-59
2023/06/02 08:07:12;;;;;;;8.63;2.03;;;;;;;-145.18;100.00;47293.31;5035298;28;20029;-59
2023/06/02 08:09:38;;;;;;;7.50;1.80;;;;;;;-145.18;100.00;47285.50;5038468;28;20033;-59
2023/06/02 08:12:03;;;;;;;7.53;2.23;;;;;;;-145.18;100.00;47297.22;5038562;28;20060;-59
2023/06/02 08:14:29;;;;;;;9.23;1.63;;;;;;;-145.18;100.00;47293.31;5038782;28;20064;-59
2023/06/02 08:16:55;;;;;;;8.93;1.90;;;;;;;-145.18;100.00;47291.38;5037396;28;20038;-59
2023/06/02 08:19:22;;;;;;;6.83;1.53;;;;;;;-145.18;100.00;47316.78;5038777;28;20060;-59
2023/06/02 08:21:48;;;;;;;9.10;1.63;;;;;;;-145.18;100.00;47301.16;5039070;28;20045;-59
2023/06/02 08:24:14;;;;;;;12.57;2.00;;;;;;;-145.18;100.00;47305.06;5037902;28;20029;-59
2023/06/02 08:26:41;;;;;;;8.87;1.80;;;;;;;-145.18;100.00;47281.59;5037764;28;20022;-59
2023/06/02 08:29:08;;;;;;;6.73;1.60;;;;;;;-145.18;100.00;47260.13;5038413;28;20044;-59
2023/06/02 08:31:35;;;;;;;8.50;2.20;;;;;;;-145.18;100.00;47234.72;5037931;28;20052;-59
2023/06/02 08:34:02;;;;;;;8.97;2.43;;;;;;;-145.18;100.00;47244.50;5037401;28;20056;-59
2023/06/02 08:36:27;;;;;;;5.60;1.83;;;;;;;-145.18;100.00;47215.19;5036591;28;20510;-60
2023/06/02 08:38:53;;;;;;;8.73;2.27;;;;;;;-145.18;100.00;47242.53;5033577;28;20090;-59
2023/06/02 08:41:19;;;;;;;7.67;2.27;;;;;;;-145.18;100.00;47232.75;5037097;28;20550;-58
2023/06/02 08:43:45;;;;;;;9.70;2.57;;;;;;;-145.18;100.00;47219.09;5036213;28;20045;-60
2023/06/02 08:46:15;;;;;;;8.93;2.00;;;;;;;-145.18;100.00;47234.72;5037924;28;20025;-59
2023/06/02 08:48:47;;;;;;;8.87;1.90;;;;;;;-145.18;100.00;47238.63;5037313;28;20068;-59
2023/06/02 08:51:22;;;;;;;9.60;1.97;;;;;;;-145.18;100.00;47242.53;5036100;28;20490;-59
2023/06/02 08:53:48;;;;;;;6.45;1.77;;;;;;;-145.18;100.00;47258.16;5037991;28;20041;-59
2023/06/02 08:56:15;;;;;;;8.83;1.70;;;;;;;-145.18;100.00;47256.22;5036980;28;20040;-60
2023/06/02 08:58:44;;;;;;;11.00;3.03;;;;;;;-145.18;100.00;47258.16;5040890;28;20056;-59
2023/06/02 09:01:10;;;;;;;11.13;2.10;;;;;;;-145.18;100.00;47283.56;5038183;28;20078;-60
2023/06/02 09:03:36;;;;;;;7.23;1.83;;;;;;;-145.18;100.00;47271.84;5032601;28;20021;-59
2023/06/02 09:06:16;;;;;;;8.43;1.73;;;;;;;-145.18;100.00;47269.88;5042078;28;20112;-59
2023/06/02 09:09:11;;;;;;;11.70;1.80;;;;;;;-145.18;100.00;47279.66;5045260;28;20024;-59
2023/06/02 09:11:37;;;;;;;8.07;1.97;;;;;;;-145.18;100.00;47269.88;5008503;28;20090;-59
2023/06/02 09:14:22;;;;;;;5.80;1.93;;;;;;;-145.18;100.00;47256.22;5037483;28;20033;-59
2023/06/02 09:16:47;;;;;;;9.17;2.37;;;;;;;-145.18;100.00;47267.94;5047061;28;20497;-59
2023/06/02 09:19:12;;;;;;;4.80;1.53;;;;;;;-145.18;100.00;47293.31;5051127;28;20048;-59
2023/06/02 09:21:38;;;;;;;9.83;2.67;;;;;;;-145.18;100.00;47279.66;5051157;28;20039;-59
2023/06/02 09:24:04;;;;;;;10.40;3.07;;;;;;;-145.18;100.00;47289.41;5051043;28;20052;-59
2023/06/02 09:26:30;;;;;;;10.40;1.73;;;;;;;-145.18;100.00;47281.59;5051162;28;20166;-59
2023/06/02 09:29:22;;;;;;;6.77;2.20;;;;;;;-145.18;100.00;47277.69;5016080;28;20029;-59
2023/06/02 09:31:51;;;;;;;5.07;1.50;;;;;;;-145.18;100.00;47273.78;5039217;28;20052;-59
2023/06/02 09:34:18;;;;;;;8.70;2.87;;;;;;;-145.18;100.00;47267.94;5051037;28;20021;-59
2023/06/02 09:36:46;;;;;;;8.73;2.00;;;;;;;-145.18;100.00;47254.25;5049292;28;20064;-59
2023/06/02 09:39:12;;;;;;;7.47;1.83;;;;;;;-145.18;100.00;47264.03;5049633;28;20021;-59
2023/06/02 09:41:38;;;;;;;8.10;2.00;;;;;;;-145.18;100.00;47264.03;5026984;28;20025;-59
2023/06/02 09:44:14;;;;;;;8.43;2.00;;;;;;;-145.18;100.00;47252.31;5038677;28;20048;-59
2023/06/02 09:46:42;;;;;;;12.43;2.40;;;;;;;-145.18;100.00;47234.72;5046602;28;20017;-59
2023/06/02 09:49:09;;;;;;;9.17;3.00;;;;;;;-145.18;100.00;47250.34;5036281;28;20075;-59
2023/06/02 09:51:37;;;;;;;6.77;1.97;;;;;;;-145.18;100.00;47264.03;5039038;28;20031;-59
2023/06/02 09:54:03;;;;;;;7.77;2.10;;;;;;;-145.18;100.00;47254.25;5048601;28;20513;-60
2023/06/02 09:56:33;;;;;;;5.70;1.93;;;;;;;-145.18;100.00;47258.16;5052562;28;20029;-59
2023/06/02 09:58:59;;;;;;;9.20;2.27;;;;;;;-145.18;100.00;47258.16;5053880;28;20099;-59
2023/06/02 10:01:26;;;;;;;10.97;2.97;;;;;;;-145.18;100.00;47267.94;5044358;28;20435;-60
2023/06/02 10:03:51;;;;;;;9.70;2.00;;;;;;;-145.18;100.00;47258.16;5054416;28;20039;-59
2023/06/02 10:06:30;;;;;;;7.20;2.00;;;;;;;-145.18;100.00;47242.53;5054466;28;20025;-59
2023/06/02 10:09:07;;;;;;;7.73;2.20;;;;;;;-145.18;100.00;47203.47;5053820;28;20027;-59
2023/06/02 10:11:45;;;;;;;11.33;2.53;;;;;;;-145.18;100.00;47236.66;5053445;28;20079;-59
2023/06/02 10:14:26;;;;;;;11.27;2.50;;;;;;;-145.18;100.00;47265.97;5054352;28;20021;-59
2023/06/02 10:17:10;;;;;;;8.40;2.10;;;;;;;-145.18;100.00;47265.97;5053388;28;20033;-59
2023/06/02 10:20:13;;;;;;;7.90;2.13;;;;;;;-145.18;100.00;47226.91;5044151;28;20025;-59
2023/06/02 10:22:55;;;;;;;9.20;2.10;;;;;;;-145.18;100.00;47254.25;5046815;28;20040;-59
2023/06/02 10:25:50;;;;;;;4.27;1.70;;;;;;;-145.18;100.00;47248.41;5040794;28;20032;-59
2023/06/02 10:28:16;;;;;;;8.17;2.70;;;;;;;-145.18;100.00;47254.25;5055887;28;20032;-59
2023/06/02 10:30:41;;;;;;;8.50;2.13;;;;;;;-145.18;100.00;47252.31;5035952;28;20024;-59
2023/06/02 10:33:07;;;;;;;11.33;2.50;;;;;;;-145.18;100.00;47254.25;5041922;28;20036;-59
2023/06/02 10:36:13;;;;;;;12.10;3.27;;;;;;;-145.18;100.00;47230.81;5055849;28;20020;-59
2023/06/02 10:38:39;;;;;;;11.70;2.77;;;;;;;-145.18;100.00;47258.16;4956841;28;20054;-59
2023/06/02 10:41:05;;;;;;;10.27;2.90;;;;;;;-145.18;100.00;47221.03;4981692;28;20038;-59
2023/06/02 10:43:33;;;;;;;7.90;2.10;;;;;;;-145.18;100.00;47228.84;5010030;28;20067;-59
2023/06/02 10:46:21;;;;;;;13.97;2.90;;;;;;;-145.18;100.00;47242.53;5051179;28;20479;-59
2023/06/02 10:48:48;;;;;;;9.07;2.67;;;;;;;-145.18;100.00;47221.03;5046276;28;20021;-59
2023/06/02 10:51:14;;;;;;;10.27;2.60;;;;;;;-145.18;100.00;47238.63;5050091;28;20029;-59
2023/06/02 10:54:02;;;;;;;6.83;2.37;;;;;;;-145.18;100.00;47215.19;5048180;28;20083;-59
2023/06/02 10:56:40;;;;;;;9.73;3.30;;;;;;;-145.18;100.00;47236.66;5039598;28;20033;-59
2023/06/02 10:59:07;;;;;;;7.00;2.07;;;;;;;-145.18;100.00;47211.28;5047745;28;20033;-59
2023/06/02 11:01:51;;;;;;;8.40;2.53;;;;;;;-145.18;100.00;47217.13;5052602;28;20059;-59
2023/06/02 11:04:44;;;;;;;11.63;2.73;;;;;;;-145.18;100.00;47207.38;5046518;28;20569;-59
2023/06/02 11:07:25;;;;;;;13.10;3.10;;;;;;;-145.18;100.00;47219.09;5021641;28;20039;-59
2023/06/02 11:09:54;;;;;;;8.07;2.43;;;;;;;-145.18;100.00;47244.50;5048647;28;20028;-59